Time;durP1;ratioP1;P1;durP2;ratioP2;P2;SDS_P1;SDS_P2;PMS_P1;PMS_P2;Temp;Humidity;BMP_temperature;BMP_pressure;BME280_temperature;BME280_humidity;BME280_pressure;Samples;Min_cycle;Max_cycle;Signal;HPM_P1;HPM_P2
2022/09/06 00:07:50;;;;;;;6.63;4.32;;;;;;;17.38;100.00;100322.47;20816718;28;20156;-68
2022/09/06 00:17:52;;;;;;;8.70;4.25;;;;;;;17.18;100.00;100326.84;20816657;28;20046;-69
2022/09/06 00:27:53;;;;;;;7.40;4.38;;;;;;;17.28;100.00;100329.09;20816116;28;20071;-68
2022/09/06 00:37:55;;;;;;;7.75;4.70;;;;;;;17.19;100.00;100344.44;20814091;28;20056;-68
2022/09/06 00:47:56;;;;;;;7.78;3.95;;;;;;;17.12;100.00;100335.06;20815617;28;20052;-68
2022/09/06 00:57:57;;;;;;;7.60;4.30;;;;;;;17.18;100.00;100355.09;20825890;28;20079;-68
2022/09/06 01:07:59;;;;;;;7.20;4.78;;;;;;;17.30;100.00;100478.09;20827712;28;20060;-68
2022/09/06 01:18:00;;;;;;;8.43;3.80;;;;;;;18.14;100.00;100482.38;20828555;28;20049;-68
2022/09/06 01:28:02;;;;;;;6.38;3.72;;;;;;;18.78;100.00;100510.31;20826876;28;20060;-68
2022/09/06 01:38:03;;;;;;;8.38;4.45;;;;;;;18.48;100.00;100492.25;20824827;28;20053;-68
2022/09/06 01:48:04;;;;;;;12.65;4.40;;;;;;;18.29;100.00;100486.09;20826337;28;20049;-68
2022/09/06 01:58:06;;;;;;;8.85;4.25;;;;;;;18.39;100.00;100439.66;20825695;28;20057;-67
2022/09/06 02:08:07;;;;;;;8.02;3.83;;;;;;;18.33;100.00;100439.97;20823214;28;20516;-68
2022/09/06 02:18:08;;;;;;;9.43;4.57;;;;;;;18.30;100.00;100448.03;20823160;28;20057;-68
2022/09/06 02:28:10;;;;;;;18.10;6.53;;;;;;;18.01;100.00;100535.03;20822390;28;20501;-70
2022/09/06 02:38:11;;;;;;;14.65;6.68;;;;;;;17.23;100.00;100431.63;20820611;28;20063;-74
2022/09/06 02:48:13;;;;;;;14.75;6.90;;;;;;;17.12;100.00;100398.56;20820569;28;20336;-72
2022/09/06 02:58:14;;;;;;;15.40;6.95;;;;;;;17.05;100.00;100415.59;20819644;28;20590;-72
2022/09/06 03:08:16;;;;;;;11.65;7.40;;;;;;;17.18;100.00;100451.22;20819625;28;20053;-73
2022/09/06 03:18:17;;;;;;;11.57;7.70;;;;;;;17.23;100.00;100439.56;20818594;28;20498;-72
2022/09/06 03:28:18;;;;;;;12.52;7.78;;;;;;;17.04;100.00;100456.22;20818266;28;20054;-72
2022/09/06 03:38:20;;;;;;;10.45;7.65;;;;;;;16.92;100.00;100435.59;20817690;28;20123;-72
2022/09/06 03:48:21;;;;;;;15.18;8.75;;;;;;;16.86;100.00;100434.06;20817280;28;20053;-73
2022/09/06 03:58:22;;;;;;;17.77;10.02;;;;;;;16.77;100.00;100433.53;20816592;28;20053;-73
2022/09/06 04:08:24;;;;;;;12.77;9.10;;;;;;;16.58;100.00;100423.72;20816689;28;20115;-72
2022/09/06 04:18:25;;;;;;;12.02;8.88;;;;;;;16.39;100.00;100426.22;20816547;28;20383;-73
2022/09/06 04:28:27;;;;;;;16.80;9.95;;;;;;;16.31;100.00;100416.88;20822332;28;20045;-73
2022/09/06 04:38:29;;;;;;;19.38;10.77;;;;;;;16.26;100.00;100416.19;20830820;28;20564;-72
2022/09/06 04:48:30;;;;;;;16.85;10.45;;;;;;;16.14;100.00;100421.03;20830177;28;20057;-72
2022/09/06 04:58:31;;;;;;;18.83;11.48;;;;;;;16.11;100.00;100426.41;20829835;28;20049;-72
2022/09/06 05:08:33;;;;;;;14.10;10.13;;;;;;;16.08;100.00;100433.59;20829096;28;20045;-72
2022/09/06 05:18:34;;;;;;;16.98;11.20;;;;;;;16.17;100.00;100420.88;20827980;28;20114;-72
2022/09/06 05:28:35;;;;;;;15.20;10.82;;;;;;;16.24;100.00;100431.22;20827726;28;20409;-72
2022/09/06 05:38:37;;;;;;;16.50;10.88;;;;;;;16.44;100.00;100439.25;20825130;28;20577;-72
2022/09/06 05:48:38;;;;;;;13.85;9.90;;;;;;;16.52;100.00;100453.00;20825822;28;20049;-72
2022/09/06 05:58:40;;;;;;;14.60;10.80;;;;;;;16.56;100.00;100457.25;20825451;28;20053;-72
2022/09/06 06:08:41;;;;;;;14.15;9.50;;;;;;;16.71;100.00;100452.28;20824737;28;20061;-71
2022/09/06 06:18:45;;;;;;;13.70;10.27;;;;;;;16.93;100.00;100455.81;20823382;28;20065;-72
2022/09/06 06:28:52;;;;;;;16.42;10.32;;;;;;;17.16;100.00;100461.00;20822384;28;20128;-72
2022/09/06 06:38:54;;;;;;;13.20;9.05;;;;;;;17.37;100.00;100458.38;20821436;28;20414;-71
2022/09/06 06:48:55;;;;;;;13.07;9.18;;;;;;;17.58;100.00;100469.81;20819766;28;20057;-71
2022/09/06 06:58:56;;;;;;;15.82;9.23;;;;;;;17.78;100.00;100476.94;20820235;28;20517;-71
2022/09/06 07:08:58;;;;;;;13.25;9.68;;;;;;;17.94;100.00;100454.97;20819104;28;20074;-71
2022/09/06 07:18:59;;;;;;;11.10;8.52;;;;;;;18.16;100.00;100446.94;20817999;28;20054;-70
2022/09/06 07:29:01;;;;;;;12.55;8.30;;;;;;;18.51;100.00;100460.31;20818854;28;20087;-70
2022/09/06 07:39:02;;;;;;;10.13;7.60;;;;;;;18.60;100.00;100453.72;20818112;28;20065;-70
2022/09/06 07:49:04;;;;;;;9.15;6.80;;;;;;;18.71;100.00;100457.59;20818512;28;20123;-70
2022/09/06 07:59:05;;;;;;;14.07;7.57;;;;;;;18.91;100.00;100464.56;20818554;28;20498;-70
2022/09/06 08:09:07;;;;;;;9.85;7.32;;;;;;;19.18;100.00;100467.66;20832175;28;20090;-70
2022/09/06 08:19:09;;;;;;;9.05;6.53;;;;;;;19.54;100.00;100461.38;20831379;28;20057;-70
2022/09/06 08:29:11;;;;;;;8.45;5.57;;;;;;;19.80;100.00;100459.22;20832277;28;20486;-69
2022/09/06 08:39:12;;;;;;;9.32;6.13;;;;;;;20.35;100.00;100454.41;20830445;28;20099;-69
2022/09/06 08:49:13;;;;;;;10.98;5.97;;;;;;;20.72;100.00;100455.91;20830314;28;20053;-70
2022/09/06 08:59:16;;;;;;;10.05;5.63;;;;;;;21.20;100.00;100455.81;20830073;28;20064;-69
2022/09/06 09:09:17;;;;;;;8.98;4.93;;;;;;;21.80;100.00;100454.91;20828226;28;20048;-69
2022/09/06 09:19:19;;;;;;;10.98;5.78;;;;;;;22.34;100.00;100455.97;20827324;28;20053;-70
2022/09/06 09:29:20;;;;;;;13.63;6.07;;;;;;;23.01;100.00;100446.25;20827338;28;20063;-70
2022/09/06 09:39:28;;;;;;;7.22;3.83;;;;;;;23.52;100.00;100437.47;20826211;28;20052;-69
2022/09/06 09:49:29;;;;;;;8.70;4.30;;;;;;;23.97;100.00;100435.25;20826004;28;20494;-70
2022/09/06 09:59:31;;;;;;;8.05;4.10;;;;;;;24.19;100.00;100430.06;20824985;28;20050;-70
2022/09/06 10:09:32;;;;;;;8.60;4.45;;;;;;;24.03;97.56;100422.28;20823475;28;20103;-70
2022/09/06 10:19:34;;;;;;;10.73;4.30;;;;;;;24.06;100.00;100411.38;20823641;28;20091;-70
2022/09/06 10:29:35;;;;;;;10.35;4.07;;;;;;;24.44;100.00;100398.91;20822694;28;20096;-70
2022/09/06 10:39:36;;;;;;;13.88;4.35;;;;;;;24.79;98.36;100394.44;20821441;28;20512;-70
2022/09/06 10:49:38;;;;;;;9.38;3.80;;;;;;;24.97;97.93;100383.31;20821365;28;20140;-70
2022/09/06 10:59:40;;;;;;;11.68;4.38;;;;;;;25.32;97.51;100388.66;20820768;28;20465;-70
2022/09/06 11:09:42;;;;;;;11.73;4.00;;;;;;;25.32;91.01;100368.09;20818860;28;20049;-70
2022/09/06 11:19:43;;;;;;;8.75;3.80;;;;;;;25.73;91.91;100361.31;20819433;28;20413;-70
2022/09/06 11:29:44;;;;;;;10.43;4.05;;;;;;;26.04;84.80;100366.91;20818778;28;20061;-70
2022/09/06 11:39:46;;;;;;;10.75;3.53;;;;;;;25.98;85.13;100349.47;20817475;28;20057;-68
2022/09/06 11:50:07;;;;;;;7.35;3.60;;;;;;;26.19;84.43;100341.50;20817730;28;20050;-70
2022/09/06 12:00:08;;;;;;;7.15;3.20;;;;;;;26.33;83.55;100326.94;20816499;28;20058;-68
2022/09/06 12:10:10;;;;;;;7.68;2.80;;;;;;;26.30;77.04;100320.03;20815261;28;20063;-68
2022/09/06 12:20:11;;;;;;;8.57;2.97;;;;;;;26.20;77.41;100308.31;20815547;28;20076;-70
2022/09/06 12:30:12;;;;;;;7.63;2.53;;;;;;;26.57;73.62;100289.19;20815269;28;20049;-68
2022/09/06 12:40:14;;;;;;;7.85;3.00;;;;;;;26.90;55.99;100287.28;20815056;28;20053;-68
2022/09/06 12:50:16;;;;;;;4.97;2.40;;;;;;;26.79;56.73;100283.69;20821637;28;20457;-68
2022/09/06 13:00:18;;;;;;;9.15;2.75;;;;;;;27.22;52.47;100261.19;20828819;28;20053;-68
2022/09/06 13:10:19;;;;;;;7.50;2.53;;;;;;;27.23;51.60;100252.16;20827754;28;20049;-68
2022/09/06 13:20:21;;;;;;;7.63;2.22;;;;;;;27.33;52.67;100244.13;20826500;28;20064;-68
2022/09/06 13:30:22;;;;;;;5.25;2.03;;;;;;;27.61;50.71;100235.28;20825217;28;20049;-69
2022/09/06 13:40:24;;;;;;;4.93;2.05;;;;;;;27.89;49.93;100222.09;20825300;28;20774;-68
2022/09/06 13:50:25;;;;;;;5.90;2.50;;;;;;;27.77;50.93;100213.25;20826363;28;20049;-68
2022/09/06 14:00:28;;;;;;;6.07;2.40;;;;;;;27.94;50.71;100198.28;20823445;28;20465;-69
2022/09/06 14:10:29;;;;;;;7.88;2.80;;;;;;;28.21;47.86;100194.03;20824570;28;20072;-68
2022/09/06 14:20:30;;;;;;;7.25;2.47;;;;;;;28.14;49.00;100191.06;20823946;28;20053;-69
2022/09/06 14:30:32;;;;;;;9.77;2.58;;;;;;;28.21;47.42;100184.09;20822572;28;20568;-69
2022/09/06 14:40:33;;;;;;;7.32;2.30;;;;;;;28.27;46.96;100162.00;20822445;28;20067;-69
2022/09/06 14:50:34;;;;;;;5.35;2.08;;;;;;;28.43;48.43;100165.97;20821824;28;20100;-69
2022/09/06 15:00:36;;;;;;;9.75;2.35;;;;;;;28.37;48.24;100181.72;20820260;28;20038;-69
2022/09/06 15:10:37;;;;;;;8.45;2.03;;;;;;;28.41;42.96;100167.94;20819195;28;20057;-70
2022/09/06 15:20:39;;;;;;;4.70;1.85;;;;;;;27.91;44.43;100174.34;20819663;28;20524;-69
2022/09/06 15:30:40;;;;;;;6.60;1.80;;;;;;;28.14;44.31;100153.38;20818191;28;20521;-69
2022/09/06 15:40:42;;;;;;;6.50;2.67;;;;;;;28.04;45.32;100144.47;20818229;28;20080;-69
2022/09/06 15:50:44;;;;;;;5.65;2.20;;;;;;;27.90;44.50;100132.28;20817850;28;20100;-69
2022/09/06 16:00:52;;;;;;;5.38;1.80;;;;;;;27.81;44.29;100133.97;20816898;28;20049;-69
2022/09/06 16:10:55;;;;;;;3.40;1.70;;;;;;;27.54;45.90;100131.09;20850906;28;20053;-69
2022/09/06 16:20:57;;;;;;;3.50;1.60;;;;;;;27.41;44.46;100122.44;20831604;28;20049;-69
2022/09/06 16:30:58;;;;;;;3.55;1.90;;;;;;;27.35;45.10;100111.22;20905307;28;20045;-69
2022/09/06 16:40:59;;;;;;;6.05;1.80;;;;;;;27.12;46.15;100101.72;20857209;28;20054;-69
2022/09/06 16:51:01;;;;;;;3.78;1.60;;;;;;;26.74;45.61;100094.38;20821758;28;20053;-69
2022/09/06 17:01:02;;;;;;;5.05;1.48;;;;;;;26.39;47.19;100100.06;20821467;28;20391;-69
2022/09/06 17:11:03;;;;;;;4.25;1.45;;;;;;;26.27;47.43;100094.78;20835082;28;20061;-69
2022/09/06 17:21:06;;;;;;;5.60;1.63;;;;;;;25.93;51.94;100090.63;20902699;28;20053;-69
2022/09/06 17:31:07;;;;;;;6.40;1.88;;;;;;;25.22;56.10;100096.44;20901657;28;20363;-69
2022/09/06 17:41:09;;;;;;;7.78;1.92;;;;;;;24.71;60.07;100072.84;20900925;28;20053;-69
2022/09/06 17:51:10;;;;;;;8.35;1.77;;;;;;;23.96;62.54;100069.84;20899833;28;20060;-69
2022/09/06 18:01:12;;;;;;;6.38;2.45;;;;;;;24.02;63.44;100085.41;20898810;28;20049;-69
2022/09/06 18:11:13;;;;;;;10.48;3.25;;;;;;;23.92;65.97;100085.25;20883161;28;20050;-69
2022/09/06 18:21:15;;;;;;;9.15;2.38;;;;;;;23.43;67.99;100078.22;20814814;28;20049;-69
2022/09/06 18:31:16;;;;;;;8.82;2.10;;;;;;;23.05;68.18;100091.72;20813793;28;20076;-69
2022/09/06 18:51:38;;;;;;;8.18;2.70;;;;;;;22.43;75.18;100107.69;20810928;28;20145;-69
2022/09/06 19:01:39;;;;;;;7.75;2.92;;;;;;;22.27;78.54;100108.72;20811533;28;20064;-69
2022/09/06 19:11:42;;;;;;;6.68;2.30;;;;;;;21.95;79.39;100107.41;20830673;28;20160;-69
2022/09/06 19:21:43;;;;;;;7.90;2.30;;;;;;;21.60;84.74;100118.59;20891688;28;20053;-69
2022/09/06 19:31:45;;;;;;;6.55;2.67;;;;;;;21.34;88.91;100124.78;20891836;28;20493;-69
2022/09/06 19:41:46;;;;;;;8.30;2.60;;;;;;;21.27;90.60;100106.50;20892073;28;20572;-69
2022/09/06 19:51:49;;;;;;;8.23;3.28;;;;;;;21.04;94.15;100093.81;20892114;28;20049;-69
2022/09/06 20:01:50;;;;;;;7.75;3.08;;;;;;;20.81;97.84;100081.97;20901811;28;20519;-69
2022/09/06 20:11:52;;;;;;;7.65;3.40;;;;;;;20.80;97.98;100082.94;20887775;28;20128;-68
2022/09/06 20:21:53;;;;;;;9.65;3.40;;;;;;;20.94;96.03;100084.72;20824313;28;20053;-69
2022/09/06 20:31:55;;;;;;;11.43;3.53;;;;;;;20.60;100.00;100081.50;20823652;28;20516;-69
2022/09/06 20:41:56;;;;;;;8.75;3.90;;;;;;;20.42;100.00;100079.97;20823148;28;20049;-69
2022/09/06 20:51:57;;;;;;;7.95;4.00;;;;;;;20.41;100.00;100091.53;20822850;28;20061;-69
2022/09/06 21:01:59;;;;;;;7.70;3.38;;;;;;;20.11;100.00;100086.28;20821311;28;20048;-69
2022/09/06 21:12:00;;;;;;;7.07;3.80;;;;;;;20.13;100.00;100095.03;20841899;28;20048;-69
2022/09/06 21:22:02;;;;;;;13.50;3.97;;;;;;;19.89;100.00;100107.97;20902416;28;20053;-69
2022/09/06 21:32:03;;;;;;;5.97;4.00;;;;;;;19.91;100.00;100106.06;20901710;28;20057;-69
2022/09/06 21:42:05;;;;;;;8.32;4.07;;;;;;;19.93;100.00;100114.78;20900307;28;20047;-69
2022/09/06 21:52:07;;;;;;;5.95;3.40;;;;;;;19.77;100.00;100109.53;20899659;28;20049;-69
2022/09/06 22:02:08;;;;;;;6.68;4.00;;;;;;;19.70;100.00;100121.47;20877567;28;20457;-68
2022/09/06 22:12:10;;;;;;;9.85;4.07;;;;;;;19.68;100.00;100100.28;20823889;28;20070;-69
2022/09/06 22:22:11;;;;;;;8.20;4.22;;;;;;;19.69;100.00;100102.03;20822349;28;20095;-68
2022/09/06 22:32:13;;;;;;;9.35;3.70;;;;;;;19.77;100.00;100098.06;20821911;28;20558;-69
2022/09/06 22:42:14;;;;;;;7.13;4.05;;;;;;;19.73;100.00;100095.56;20821609;28;20053;-69
2022/09/06 22:52:15;;;;;;;12.05;4.15;;;;;;;19.68;100.00;100088.81;20820197;28;20060;-69
2022/09/06 23:02:17;;;;;;;8.80;4.35;;;;;;;19.64;100.00;100072.22;20819312;28;20054;-68
2022/09/06 23:12:18;;;;;;;6.70;4.07;;;;;;;19.54;100.00;100060.38;20819531;28;20053;-69
2022/09/06 23:22:19;;;;;;;6.22;3.80;;;;;;;19.47;100.00;100054.56;20818433;28;20103;-68
2022/09/06 23:32:21;;;;;;;9.52;3.85;;;;;;;19.37;100.00;100064.00;20818219;28;20064;-69
2022/09/06 23:42:23;;;;;;;7.90;3.60;;;;;;;19.30;100.00;100054.66;20817515;28;20053;-69
2022/09/06 23:52:24;;;;;;;8.38;3.95;;;;;;;19.22;100.00;100063.09;20817017;28;20107;-68
